NGTA/TRW METAR and TAF weather

Enter ICAO airport designator
Station Type Date Time Source
NGTA METAR 2019/04/25 11:00 UTC NOAA

NGTA 251100Z 07009KT 9999 SCT019 OVC090 26/25 Q1010


Station Type Date Time Source
NGTA Decoded METAR 2019/04/25 11:00 UTC NOAA

Tarawa, Kiribati (NGTA) 01-21N 172-55E 4M
Apr 25, 2019 - 07:00 AM EDT / 2019.04.25 1100 UTC
Wind: from the ENE (070 degrees) at 10 MPH (9 KT):0
Visibility: greater than 7 mile(s):0
Sky conditions: overcast
Temperature: 78 F (26 C)
Dew Point: 77 F (25 C)
Relative Humidity: 94%
Pressure (altimeter): 29.83 in. Hg (1010 hPa)
ob: NGTA 251100Z 07009KT 9999 SCT019 OVC090 26/25 Q1010
cycle: 11

Station Type Date Time Source
NGTA TAF 2019/04/25 12:21 UTC NOAA

TAF NGTA 251117Z 2512/2612 07010KT 8000 -SHRA SCT018 BKN100
TEMPO 2512/2612 3000 TSRA BKN015 FEW018CB

Example: see airport list